sensor_id;sensor_type;location;lat;lon;timestamp;P1;durP1;ratioP1;P2;durP2;ratioP2
2646;SDS011;1333;50.958;6.770;2024-03-08T00:01:47;13.37;;;8.70;;
2646;SDS011;1333;50.958;6.770;2024-03-08T00:04:13;16.53;;;9.07;;
2646;SDS011;1333;50.958;6.770;2024-03-08T00:06:40;14.90;;;10.10;;
2646;SDS011;1333;50.958;6.770;2024-03-08T00:09:06;18.27;;;10.33;;
2646;SDS011;1333;50.958;6.770;2024-03-08T00:11:33;16.07;;;9.80;;
2646;SDS011;1333;50.958;6.770;2024-03-08T00:13:59;19.60;;;11.10;;
2646;SDS011;1333;50.958;6.770;2024-03-08T00:16:25;19.90;;;9.50;;
2646;SDS011;1333;50.958;6.770;2024-03-08T00:18:51;13.57;;;9.77;;
2646;SDS011;1333;50.958;6.770;2024-03-08T00:21:16;14.47;;;9.97;;
2646;SDS011;1333;50.958;6.770;2024-03-08T00:23:42;12.70;;;8.73;;
2646;SDS011;1333;50.958;6.770;2024-03-08T00:26:07;15.87;;;9.80;;
2646;SDS011;1333;50.958;6.770;2024-03-08T00:28:33;15.87;;;10.13;;
2646;SDS011;1333;50.958;6.770;2024-03-08T00:30:59;16.50;;;10.63;;
2646;SDS011;1333;50.958;6.770;2024-03-08T00:33:25;16.83;;;10.50;;
2646;SDS011;1333;50.958;6.770;2024-03-08T00:35:52;20.67;;;9.80;;
2646;SDS011;1333;50.958;6.770;2024-03-08T00:38:18;13.40;;;8.73;;
2646;SDS011;1333;50.958;6.770;2024-03-08T00:40:44;15.93;;;9.80;;
2646;SDS011;1333;50.958;6.770;2024-03-08T00:43:09;17.90;;;9.80;;
2646;SDS011;1333;50.958;6.770;2024-03-08T00:45:35;12.37;;;8.80;;
2646;SDS011;1333;50.958;6.770;2024-03-08T00:48:01;15.87;;;10.00;;
2646;SDS011;1333;50.958;6.770;2024-03-08T00:50:28;24.03;;;11.20;;
2646;SDS011;1333;50.958;6.770;2024-03-08T00:52:53;16.97;;;9.80;;
2646;SDS011;1333;50.958;6.770;2024-03-08T00:55:19;18.53;;;11.20;;
2646;SDS011;1333;50.958;6.770;2024-03-08T00:57:45;15.17;;;9.20;;
2646;SDS011;1333;50.958;6.770;2024-03-08T01:00:10;17.90;;;10.10;;
2646;SDS011;1333;50.958;6.770;2024-03-08T01:02:37;19.30;;;10.40;;
2646;SDS011;1333;50.958;6.770;2024-03-08T01:05:04;14.23;;;9.00;;
2646;SDS011;1333;50.958;6.770;2024-03-08T01:07:32;13.30;;;10.30;;
2646;SDS011;1333;50.958;6.770;2024-03-08T01:10:01;19.30;;;11.47;;
2646;SDS011;1333;50.958;6.770;2024-03-08T01:12:28;14.50;;;9.80;;
2646;SDS011;1333;50.958;6.770;2024-03-08T01:14:54;14.63;;;8.80;;
2646;SDS011;1333;50.958;6.770;2024-03-08T01:17:20;12.53;;;8.70;;
2646;SDS011;1333;50.958;6.770;2024-03-08T01:19:45;15.00;;;9.10;;
2646;SDS011;1333;50.958;6.770;2024-03-08T01:22:11;11.90;;;9.37;;
2646;SDS011;1333;50.958;6.770;2024-03-08T01:24:36;14.40;;;10.07;;
2646;SDS011;1333;50.958;6.770;2024-03-08T01:27:02;14.73;;;9.70;;
2646;SDS011;1333;50.958;6.770;2024-03-08T01:29:28;16.77;;;10.07;;
2646;SDS011;1333;50.958;6.770;2024-03-08T01:31:54;17.53;;;11.47;;
2646;SDS011;1333;50.958;6.770;2024-03-08T01:34:21;20.73;;;10.80;;
2646;SDS011;1333;50.958;6.770;2024-03-08T01:36:47;15.17;;;9.87;;
2646;SDS011;1333;50.958;6.770;2024-03-08T01:39:13;26.07;;;10.87;;
2646;SDS011;1333;50.958;6.770;2024-03-08T01:41:39;18.17;;;10.10;;
2646;SDS011;1333;50.958;6.770;2024-03-08T01:44:05;18.77;;;10.03;;
2646;SDS011;1333;50.958;6.770;2024-03-08T01:46:32;18.60;;;10.67;;
2646;SDS011;1333;50.958;6.770;2024-03-08T01:48:59;17.13;;;10.47;;
2646;SDS011;1333;50.958;6.770;2024-03-08T01:51:25;19.07;;;10.67;;
2646;SDS011;1333;50.958;6.770;2024-03-08T01:53:53;18.93;;;10.33;;
2646;SDS011;1333;50.958;6.770;2024-03-08T01:56:20;16.07;;;9.00;;
2646;SDS011;1333;50.958;6.770;2024-03-08T01:58:45;17.93;;;10.07;;
2646;SDS011;1333;50.958;6.770;2024-03-08T02:01:12;19.87;;;10.47;;
2646;SDS011;1333;50.958;6.770;2024-03-08T02:03:39;18.33;;;10.60;;
2646;SDS011;1333;50.958;6.770;2024-03-08T02:06:05;21.03;;;10.70;;
2646;SDS011;1333;50.958;6.770;2024-03-08T02:08:34;15.17;;;9.03;;
2646;SDS011;1333;50.958;6.770;2024-03-08T02:11:00;19.43;;;10.50;;
2646;SDS011;1333;50.958;6.770;2024-03-08T02:13:27;17.93;;;9.73;;
2646;SDS011;1333;50.958;6.770;2024-03-08T02:15:54;17.07;;;10.03;;
2646;SDS011;1333;50.958;6.770;2024-03-08T02:18:27;19.87;;;10.23;;
2646;SDS011;1333;50.958;6.770;2024-03-08T02:21:00;18.13;;;9.70;;
2646;SDS011;1333;50.958;6.770;2024-03-08T02:23:27;21.00;;;10.60;;
2646;SDS011;1333;50.958;6.770;2024-03-08T02:25:54;17.93;;;10.03;;
2646;SDS011;1333;50.958;6.770;2024-03-08T02:28:21;15.17;;;10.13;;
2646;SDS011;1333;50.958;6.770;2024-03-08T02:30:47;16.40;;;10.60;;
2646;SDS011;1333;50.958;6.770;2024-03-08T02:33:13;20.30;;;10.67;;
2646;SDS011;1333;50.958;6.770;2024-03-08T02:35:45;21.50;;;10.47;;
2646;SDS011;1333;50.958;6.770;2024-03-08T02:38:15;22.03;;;11.73;;
2646;SDS011;1333;50.958;6.770;2024-03-08T02:40:45;18.00;;;9.03;;
2646;SDS011;1333;50.958;6.770;2024-03-08T02:43:11;15.83;;;10.73;;
2646;SDS011;1333;50.958;6.770;2024-03-08T02:45:37;15.57;;;9.10;;
2646;SDS011;1333;50.958;6.770;2024-03-08T02:48:03;19.50;;;12.23;;
2646;SDS011;1333;50.958;6.770;2024-03-08T02:50:31;17.27;;;9.67;;
2646;SDS011;1333;50.958;6.770;2024-03-08T02:52:57;15.80;;;11.03;;
2646;SDS011;1333;50.958;6.770;2024-03-08T02:55:22;22.90;;;11.47;;
2646;SDS011;1333;50.958;6.770;2024-03-08T02:57:50;16.07;;;11.40;;
2646;SDS011;1333;50.958;6.770;2024-03-08T03:00:17;21.23;;;12.17;;
2646;SDS011;1333;50.958;6.770;2024-03-08T03:02:44;18.67;;;11.67;;
2646;SDS011;1333;50.958;6.770;2024-03-08T03:05:10;19.30;;;10.77;;
2646;SDS011;1333;50.958;6.770;2024-03-08T03:07:36;23.57;;;10.53;;
2646;SDS011;1333;50.958;6.770;2024-03-08T03:10:02;17.83;;;9.50;;
2646;SDS011;1333;50.958;6.770;2024-03-08T03:12:29;18.87;;;12.07;;
2646;SDS011;1333;50.958;6.770;2024-03-08T03:14:55;18.80;;;11.23;;
2646;SDS011;1333;50.958;6.770;2024-03-08T03:17:24;23.97;;;9.97;;
2646;SDS011;1333;50.958;6.770;2024-03-08T03:19:51;22.83;;;12.77;;
2646;SDS011;1333;50.958;6.770;2024-03-08T03:22:17;18.80;;;11.03;;
2646;SDS011;1333;50.958;6.770;2024-03-08T03:24:43;20.43;;;10.60;;
2646;SDS011;1333;50.958;6.770;2024-03-08T03:27:09;19.67;;;11.30;;
2646;SDS011;1333;50.958;6.770;2024-03-08T03:29:38;24.67;;;12.33;;
2646;SDS011;1333;50.958;6.770;2024-03-08T03:32:05;17.70;;;10.23;;
2646;SDS011;1333;50.958;6.770;2024-03-08T03:34:32;19.57;;;11.07;;
2646;SDS011;1333;50.958;6.770;2024-03-08T03:37:00;14.47;;;9.73;;
2646;SDS011;1333;50.958;6.770;2024-03-08T03:39:27;17.30;;;10.50;;
2646;SDS011;1333;50.958;6.770;2024-03-08T03:41:56;17.53;;;10.27;;
2646;SDS011;1333;50.958;6.770;2024-03-08T03:44:22;19.17;;;10.27;;
2646;SDS011;1333;50.958;6.770;2024-03-08T03:46:48;22.47;;;11.33;;
2646;SDS011;1333;50.958;6.770;2024-03-08T03:49:15;21.03;;;10.43;;
2646;SDS011;1333;50.958;6.770;2024-03-08T03:51:42;16.93;;;10.40;;
2646;SDS011;1333;50.958;6.770;2024-03-08T03:54:07;19.70;;;10.63;;
2646;SDS011;1333;50.958;6.770;2024-03-08T03:56:33;15.93;;;9.10;;
2646;SDS011;1333;50.958;6.770;2024-03-08T03:58:58;16.07;;;8.37;;
2646;SDS011;1333;50.958;6.770;2024-03-08T04:01:24;16.03;;;8.23;;
2646;SDS011;1333;50.958;6.770;2024-03-08T04:03:49;17.10;;;9.60;;
2646;SDS011;1333;50.958;6.770;2024-03-08T04:06:15;22.80;;;11.13;;
2646;SDS011;1333;50.958;6.770;2024-03-08T04:08:40;18.97;;;10.60;;
2646;SDS011;1333;50.958;6.770;2024-03-08T04:11:06;24.33;;;11.77;;
2646;SDS011;1333;50.958;6.770;2024-03-08T04:13:33;20.07;;;11.43;;
2646;SDS011;1333;50.958;6.770;2024-03-08T04:15:59;16.20;;;11.97;;
2646;SDS011;1333;50.958;6.770;2024-03-08T04:18:25;27.87;;;11.70;;
2646;SDS011;1333;50.958;6.770;2024-03-08T04:20:50;23.40;;;11.10;;
2646;SDS011;1333;50.958;6.770;2024-03-08T04:23:16;18.57;;;10.43;;
2646;SDS011;1333;50.958;6.770;2024-03-08T04:25:43;20.45;;;10.10;;
2646;SDS011;1333;50.958;6.770;2024-03-08T04:28:08;18.27;;;11.57;;
2646;SDS011;1333;50.958;6.770;2024-03-08T04:30:37;18.83;;;10.20;;
2646;SDS011;1333;50.958;6.770;2024-03-08T04:33:04;16.37;;;9.30;;
2646;SDS011;1333;50.958;6.770;2024-03-08T04:35:31;19.43;;;10.50;;
2646;SDS011;1333;50.958;6.770;2024-03-08T04:37:56;22.50;;;13.00;;
2646;SDS011;1333;50.958;6.770;2024-03-08T04:40:23;22.50;;;11.20;;
2646;SDS011;1333;50.958;6.770;2024-03-08T04:42:49;20.83;;;12.10;;
2646;SDS011;1333;50.958;6.770;2024-03-08T04:45:15;17.17;;;9.27;;
2646;SDS011;1333;50.958;6.770;2024-03-08T04:47:41;18.47;;;11.50;;
2646;SDS011;1333;50.958;6.770;2024-03-08T04:50:07;27.80;;;12.00;;
2646;SDS011;1333;50.958;6.770;2024-03-08T04:52:34;23.90;;;13.50;;
2646;SDS011;1333;50.958;6.770;2024-03-08T04:55:00;16.77;;;9.40;;
2646;SDS011;1333;50.958;6.770;2024-03-08T04:57:26;17.57;;;11.27;;
2646;SDS011;1333;50.958;6.770;2024-03-08T04:59:52;18.73;;;10.00;;
2646;SDS011;1333;50.958;6.770;2024-03-08T05:02:18;16.53;;;10.30;;
2646;SDS011;1333;50.958;6.770;2024-03-08T05:04:43;26.70;;;11.63;;
2646;SDS011;1333;50.958;6.770;2024-03-08T05:07:09;19.70;;;10.30;;
2646;SDS011;1333;50.958;6.770;2024-03-08T05:09:34;20.27;;;10.10;;
2646;SDS011;1333;50.958;6.770;2024-03-08T05:12:01;18.60;;;10.70;;
2646;SDS011;1333;50.958;6.770;2024-03-08T05:14:26;14.50;;;9.23;;
2646;SDS011;1333;50.958;6.770;2024-03-08T05:16:52;20.23;;;10.83;;
2646;SDS011;1333;50.958;6.770;2024-03-08T05:19:18;21.00;;;9.97;;
2646;SDS011;1333;50.958;6.770;2024-03-08T05:21:48;20.83;;;10.77;;
2646;SDS011;1333;50.958;6.770;2024-03-08T05:24:15;20.57;;;12.40;;
2646;SDS011;1333;50.958;6.770;2024-03-08T05:26:40;17.10;;;10.70;;
2646;SDS011;1333;50.958;6.770;2024-03-08T05:29:07;15.53;;;10.93;;
2646;SDS011;1333;50.958;6.770;2024-03-08T05:31:37;15.27;;;9.87;;
2646;SDS011;1333;50.958;6.770;2024-03-08T05:34:11;19.00;;;11.03;;
2646;SDS011;1333;50.958;6.770;2024-03-08T05:36:39;23.10;;;12.20;;
2646;SDS011;1333;50.958;6.770;2024-03-08T05:39:05;22.37;;;11.17;;
2646;SDS011;1333;50.958;6.770;2024-03-08T05:41:31;19.47;;;10.47;;
2646;SDS011;1333;50.958;6.770;2024-03-08T05:43:57;16.37;;;10.30;;
2646;SDS011;1333;50.958;6.770;2024-03-08T05:46:22;20.53;;;10.30;;
2646;SDS011;1333;50.958;6.770;2024-03-08T05:48:48;20.87;;;10.07;;
2646;SDS011;1333;50.958;6.770;2024-03-08T05:51:13;16.83;;;9.80;;
2646;SDS011;1333;50.958;6.770;2024-03-08T05:53:39;21.60;;;11.10;;
2646;SDS011;1333;50.958;6.770;2024-03-08T05:56:04;24.23;;;10.47;;
2646;SDS011;1333;50.958;6.770;2024-03-08T05:58:30;19.10;;;10.77;;
2646;SDS011;1333;50.958;6.770;2024-03-08T06:00:56;19.03;;;10.87;;
2646;SDS011;1333;50.958;6.770;2024-03-08T06:03:21;20.27;;;12.53;;
2646;SDS011;1333;50.958;6.770;2024-03-08T06:05:50;22.80;;;10.60;;
2646;SDS011;1333;50.958;6.770;2024-03-08T06:08:16;14.13;;;9.40;;
2646;SDS011;1333;50.958;6.770;2024-03-08T06:10:41;10.77;;;9.57;;
2646;SDS011;1333;50.958;6.770;2024-03-08T06:13:07;16.60;;;11.40;;
2646;SDS011;1333;50.958;6.770;2024-03-08T06:15:32;21.83;;;9.60;;
2646;SDS011;1333;50.958;6.770;2024-03-08T06:17:59;18.13;;;10.40;;
2646;SDS011;1333;50.958;6.770;2024-03-08T06:20:25;18.17;;;10.80;;
2646;SDS011;1333;50.958;6.770;2024-03-08T06:22:51;18.83;;;9.83;;
2646;SDS011;1333;50.958;6.770;2024-03-08T06:25:17;20.00;;;11.20;;
2646;SDS011;1333;50.958;6.770;2024-03-08T06:27:43;25.63;;;10.27;;
2646;SDS011;1333;50.958;6.770;2024-03-08T06:30:09;25.43;;;10.50;;
2646;SDS011;1333;50.958;6.770;2024-03-08T06:32:35;18.97;;;9.60;;
2646;SDS011;1333;50.958;6.770;2024-03-08T06:35:02;24.50;;;10.93;;
2646;SDS011;1333;50.958;6.770;2024-03-08T06:37:31;21.60;;;12.73;;
2646;SDS011;1333;50.958;6.770;2024-03-08T06:39:57;21.97;;;13.57;;
2646;SDS011;1333;50.958;6.770;2024-03-08T06:42:23;23.97;;;12.60;;
2646;SDS011;1333;50.958;6.770;2024-03-08T06:44:48;16.90;;;10.67;;
2646;SDS011;1333;50.958;6.770;2024-03-08T06:47:17;19.87;;;12.70;;
2646;SDS011;1333;50.958;6.770;2024-03-08T06:49:43;19.10;;;11.47;;
2646;SDS011;1333;50.958;6.770;2024-03-08T06:52:09;24.73;;;12.13;;
2646;SDS011;1333;50.958;6.770;2024-03-08T06:54:35;17.50;;;9.53;;
2646;SDS011;1333;50.958;6.770;2024-03-08T06:57:01;22.40;;;11.77;;
2646;SDS011;1333;50.958;6.770;2024-03-08T06:59:30;23.70;;;11.13;;
2646;SDS011;1333;50.958;6.770;2024-03-08T07:01:56;24.00;;;13.10;;
2646;SDS011;1333;50.958;6.770;2024-03-08T07:04:22;25.80;;;13.03;;
2646;SDS011;1333;50.958;6.770;2024-03-08T07:06:51;22.90;;;12.10;;
2646;SDS011;1333;50.958;6.770;2024-03-08T07:09:17;27.00;;;11.27;;
2646;SDS011;1333;50.958;6.770;2024-03-08T07:11:42;22.80;;;12.23;;
2646;SDS011;1333;50.958;6.770;2024-03-08T07:14:08;23.17;;;10.40;;
2646;SDS011;1333;50.958;6.770;2024-03-08T07:16:34;25.80;;;13.53;;
2646;SDS011;1333;50.958;6.770;2024-03-08T07:19:00;20.17;;;12.57;;
2646;SDS011;1333;50.958;6.770;2024-03-08T07:21:26;16.60;;;10.93;;
2646;SDS011;1333;50.958;6.770;2024-03-08T07:23:52;20.07;;;11.80;;
2646;SDS011;1333;50.958;6.770;2024-03-08T07:26:27;22.00;;;12.23;;
2646;SDS011;1333;50.958;6.770;2024-03-08T07:28:52;18.40;;;11.20;;
2646;SDS011;1333;50.958;6.770;2024-03-08T07:31:21;20.43;;;13.53;;
2646;SDS011;1333;50.958;6.770;2024-03-08T07:33:50;17.83;;;11.30;;
2646;SDS011;1333;50.958;6.770;2024-03-08T07:36:16;24.47;;;11.37;;
2646;SDS011;1333;50.958;6.770;2024-03-08T07:38:41;28.03;;;12.03;;
2646;SDS011;1333;50.958;6.770;2024-03-08T07:41:07;19.93;;;11.23;;
2646;SDS011;1333;50.958;6.770;2024-03-08T07:43:32;18.30;;;11.30;;
2646;SDS011;1333;50.958;6.770;2024-03-08T07:45:58;21.57;;;12.80;;
2646;SDS011;1333;50.958;6.770;2024-03-08T07:48:23;19.47;;;12.30;;
2646;SDS011;1333;50.958;6.770;2024-03-08T07:50:49;17.30;;;10.97;;
2646;SDS011;1333;50.958;6.770;2024-03-08T07:53:14;13.20;;;10.00;;
2646;SDS011;1333;50.958;6.770;2024-03-08T07:55:40;23.10;;;12.30;;
2646;SDS011;1333;50.958;6.770;2024-03-08T07:58:07;20.20;;;11.80;;
2646;SDS011;1333;50.958;6.770;2024-03-08T08:00:35;15.43;;;11.13;;
2646;SDS011;1333;50.958;6.770;2024-03-08T08:03:01;18.33;;;11.70;;
2646;SDS011;1333;50.958;6.770;2024-03-08T08:05:27;21.60;;;11.87;;
2646;SDS011;1333;50.958;6.770;2024-03-08T08:07:53;20.87;;;12.53;;
2646;SDS011;1333;50.958;6.770;2024-03-08T08:10:19;16.00;;;11.67;;
2646;SDS011;1333;50.958;6.770;2024-03-08T08:12:50;15.40;;;12.00;;
2646;SDS011;1333;50.958;6.770;2024-03-08T08:15:16;18.67;;;11.57;;
2646;SDS011;1333;50.958;6.770;2024-03-08T08:17:42;14.83;;;11.20;;
2646;SDS011;1333;50.958;6.770;2024-03-08T08:20:09;16.73;;;11.87;;
2646;SDS011;1333;50.958;6.770;2024-03-08T08:22:36;15.93;;;11.73;;
2646;SDS011;1333;50.958;6.770;2024-03-08T08:25:05;14.43;;;11.93;;
2646;SDS011;1333;50.958;6.770;2024-03-08T08:27:32;17.43;;;11.43;;
2646;SDS011;1333;50.958;6.770;2024-03-08T08:29:58;22.33;;;13.00;;
2646;SDS011;1333;50.958;6.770;2024-03-08T08:32:24;16.03;;;11.30;;
2646;SDS011;1333;50.958;6.770;2024-03-08T08:34:49;14.17;;;11.20;;
2646;SDS011;1333;50.958;6.770;2024-03-08T08:37:15;17.27;;;12.50;;
2646;SDS011;1333;50.958;6.770;2024-03-08T08:39:41;16.07;;;12.97;;
2646;SDS011;1333;50.958;6.770;2024-03-08T08:42:07;12.50;;;10.63;;
2646;SDS011;1333;50.958;6.770;2024-03-08T08:44:34;19.20;;;13.43;;
2646;SDS011;1333;50.958;6.770;2024-03-08T08:47:00;14.73;;;12.20;;
2646;SDS011;1333;50.958;6.770;2024-03-08T08:49:26;18.83;;;12.53;;
2646;SDS011;1333;50.958;6.770;2024-03-08T08:51:51;13.97;;;12.20;;
2646;SDS011;1333;50.958;6.770;2024-03-08T08:54:17;14.43;;;11.40;;
2646;SDS011;1333;50.958;6.770;2024-03-08T08:56:43;16.03;;;12.23;;
2646;SDS011;1333;50.958;6.770;2024-03-08T08:59:09;16.10;;;11.37;;
2646;SDS011;1333;50.958;6.770;2024-03-08T09:01:38;15.00;;;10.50;;
2646;SDS011;1333;50.958;6.770;2024-03-08T09:04:04;17.57;;;11.17;;
2646;SDS011;1333;50.958;6.770;2024-03-08T09:06:30;13.97;;;10.40;;
2646;SDS011;1333;50.958;6.770;2024-03-08T09:08:56;14.70;;;10.73;;
2646;SDS011;1333;50.958;6.770;2024-03-08T09:11:21;13.40;;;10.87;;
2646;SDS011;1333;50.958;6.770;2024-03-08T09:13:47;17.53;;;10.90;;
2646;SDS011;1333;50.958;6.770;2024-03-08T09:16:14;15.03;;;11.93;;
2646;SDS011;1333;50.958;6.770;2024-03-08T09:18:39;14.30;;;11.30;;
2646;SDS011;1333;50.958;6.770;2024-03-08T09:21:06;14.70;;;11.67;;
2646;SDS011;1333;50.958;6.770;2024-03-08T09:23:34;15.63;;;11.20;;
2646;SDS011;1333;50.958;6.770;2024-03-08T09:26:03;16.70;;;11.83;;
2646;SDS011;1333;50.958;6.770;2024-03-08T09:28:29;14.60;;;10.90;;
2646;SDS011;1333;50.958;6.770;2024-03-08T09:30:54;12.93;;;11.63;;
2646;SDS011;1333;50.958;6.770;2024-03-08T09:33:20;13.33;;;11.93;;
2646;SDS011;1333;50.958;6.770;2024-03-08T09:35:46;17.20;;;11.07;;
2646;SDS011;1333;50.958;6.770;2024-03-08T09:38:13;14.97;;;10.47;;
2646;SDS011;1333;50.958;6.770;2024-03-08T09:40:42;14.73;;;10.10;;
2646;SDS011;1333;50.958;6.770;2024-03-08T09:43:09;14.03;;;10.33;;
2646;SDS011;1333;50.958;6.770;2024-03-08T09:45:36;12.70;;;10.57;;
2646;SDS011;1333;50.958;6.770;2024-03-08T09:48:09;14.33;;;10.00;;
2646;SDS011;1333;50.958;6.770;2024-03-08T09:50:41;13.20;;;9.40;;
2646;SDS011;1333;50.958;6.770;2024-03-08T09:53:07;12.60;;;10.27;;
2646;SDS011;1333;50.958;6.770;2024-03-08T09:55:37;11.30;;;9.57;;
2646;SDS011;1333;50.958;6.770;2024-03-08T09:58:08;13.63;;;10.30;;
2646;SDS011;1333;50.958;6.770;2024-03-08T10:00:45;14.43;;;10.60;;
2646;SDS011;1333;50.958;6.770;2024-03-08T10:03:10;14.37;;;10.63;;
2646;SDS011;1333;50.958;6.770;2024-03-08T10:05:36;15.80;;;10.17;;
2646;SDS011;1333;50.958;6.770;2024-03-08T10:08:02;14.47;;;10.13;;
2646;SDS011;1333;50.958;6.770;2024-03-08T10:10:28;11.93;;;9.80;;
2646;SDS011;1333;50.958;6.770;2024-03-08T10:12:54;14.50;;;10.90;;
2646;SDS011;1333;50.958;6.770;2024-03-08T10:15:21;11.83;;;9.70;;
2646;SDS011;1333;50.958;6.770;2024-03-08T10:17:46;11.60;;;9.10;;
2646;SDS011;1333;50.958;6.770;2024-03-08T10:20:15;11.77;;;8.80;;
2646;SDS011;1333;50.958;6.770;2024-03-08T10:22:42;13.93;;;8.30;;
2646;SDS011;1333;50.958;6.770;2024-03-08T10:25:09;8.83;;;7.90;;
2646;SDS011;1333;50.958;6.770;2024-03-08T10:27:37;10.63;;;8.77;;
2646;SDS011;1333;50.958;6.770;2024-03-08T10:30:04;13.40;;;8.97;;
2646;SDS011;1333;50.958;6.770;2024-03-08T10:32:33;9.27;;;8.23;;
2646;SDS011;1333;50.958;6.770;2024-03-08T10:34:59;11.33;;;9.20;;
2646;SDS011;1333;50.958;6.770;2024-03-08T10:37:24;8.63;;;7.37;;
2646;SDS011;1333;50.958;6.770;2024-03-08T10:40:03;10.13;;;8.10;;
2646;SDS011;1333;50.958;6.770;2024-03-08T10:42:39;9.83;;;7.57;;
2646;SDS011;1333;50.958;6.770;2024-03-08T10:45:15;10.27;;;9.17;;
2646;SDS011;1333;50.958;6.770;2024-03-08T10:48:04;10.13;;;7.20;;
2646;SDS011;1333;50.958;6.770;2024-03-08T10:50:33;11.63;;;7.97;;
2646;SDS011;1333;50.958;6.770;2024-03-08T10:53:00;8.00;;;7.20;;
2646;SDS011;1333;50.958;6.770;2024-03-08T10:55:26;7.57;;;6.73;;
2646;SDS011;1333;50.958;6.770;2024-03-08T10:57:53;7.53;;;6.77;;
2646;SDS011;1333;50.958;6.770;2024-03-08T11:00:19;7.87;;;6.40;;
2646;SDS011;1333;50.958;6.770;2024-03-08T11:02:51;11.10;;;7.63;;
2646;SDS011;1333;50.958;6.770;2024-03-08T11:08:17;8.83;;;6.97;;
2646;SDS011;1333;50.958;6.770;2024-03-08T11:10:47;9.73;;;7.47;;
2646;SDS011;1333;50.958;6.770;2024-03-08T11:16:50;8.60;;;6.90;;
2646;SDS011;1333;50.958;6.770;2024-03-08T11:21:35;8.77;;;7.40;;
2646;SDS011;1333;50.958;6.770;2024-03-08T11:24:14;9.70;;;7.37;;
2646;SDS011;1333;50.958;6.770;2024-03-08T11:26:41;10.73;;;8.03;;
2646;SDS011;1333;50.958;6.770;2024-03-08T11:32:07;7.07;;;5.97;;
2646;SDS011;1333;50.958;6.770;2024-03-08T11:34:34;9.00;;;6.37;;
2646;SDS011;1333;50.958;6.770;2024-03-08T11:37:00;9.03;;;7.00;;
2646;SDS011;1333;50.958;6.770;2024-03-08T11:39:28;10.83;;;7.40;;
2646;SDS011;1333;50.958;6.770;2024-03-08T11:41:55;10.27;;;7.83;;
2646;SDS011;1333;50.958;6.770;2024-03-08T11:44:21;10.00;;;6.70;;
2646;SDS011;1333;50.958;6.770;2024-03-08T11:46:46;10.20;;;7.87;;
2646;SDS011;1333;50.958;6.770;2024-03-08T11:49:13;8.87;;;6.80;;
2646;SDS011;1333;50.958;6.770;2024-03-08T11:51:39;9.07;;;6.70;;
2646;SDS011;1333;50.958;6.770;2024-03-08T11:54:05;8.17;;;7.00;;
2646;SDS011;1333;50.958;6.770;2024-03-08T11:56:36;8.40;;;7.60;;
2646;SDS011;1333;50.958;6.770;2024-03-08T11:59:02;8.47;;;6.97;;
2646;SDS011;1333;50.958;6.770;2024-03-08T12:01:28;9.47;;;7.90;;
2646;SDS011;1333;50.958;6.770;2024-03-08T12:03:54;9.07;;;7.30;;
2646;SDS011;1333;50.958;6.770;2024-03-08T12:06:23;9.20;;;7.17;;
2646;SDS011;1333;50.958;6.770;2024-03-08T12:08:49;8.13;;;7.33;;
2646;SDS011;1333;50.958;6.770;2024-03-08T12:11:15;9.60;;;7.70;;
2646;SDS011;1333;50.958;6.770;2024-03-08T12:13:44;9.30;;;8.33;;
2646;SDS011;1333;50.958;6.770;2024-03-08T12:16:11;10.30;;;8.20;;
2646;SDS011;1333;50.958;6.770;2024-03-08T12:18:38;11.20;;;9.00;;
2646;SDS011;1333;50.958;6.770;2024-03-08T12:21:11;8.80;;;8.00;;
2646;SDS011;1333;50.958;6.770;2024-03-08T12:23:39;8.70;;;7.80;;
2646;SDS011;1333;50.958;6.770;2024-03-08T12:26:14;9.90;;;8.43;;
2646;SDS011;1333;50.958;6.770;2024-03-08T12:28:41;8.77;;;7.93;;
2646;SDS011;1333;50.958;6.770;2024-03-08T12:31:12;8.70;;;7.83;;
2646;SDS011;1333;50.958;6.770;2024-03-08T12:33:51;13.07;;;8.30;;
2646;SDS011;1333;50.958;6.770;2024-03-08T12:36:24;9.47;;;8.50;;
2646;SDS011;1333;50.958;6.770;2024-03-08T12:38:50;10.03;;;8.90;;
2646;SDS011;1333;50.958;6.770;2024-03-08T12:41:19;10.37;;;8.13;;
2646;SDS011;1333;50.958;6.770;2024-03-08T12:43:46;9.77;;;8.07;;
2646;SDS011;1333;50.958;6.770;2024-03-08T12:46:22;9.67;;;7.70;;
2646;SDS011;1333;50.958;6.770;2024-03-08T12:48:51;9.17;;;8.33;;
2646;SDS011;1333;50.958;6.770;2024-03-08T12:51:18;10.40;;;8.90;;
2646;SDS011;1333;50.958;6.770;2024-03-08T12:53:45;7.80;;;7.10;;
2646;SDS011;1333;50.958;6.770;2024-03-08T12:56:12;9.20;;;7.80;;
2646;SDS011;1333;50.958;6.770;2024-03-08T12:58:38;8.43;;;7.47;;
2646;SDS011;1333;50.958;6.770;2024-03-08T13:01:04;8.30;;;7.40;;
2646;SDS011;1333;50.958;6.770;2024-03-08T13:03:32;9.23;;;8.27;;
2646;SDS011;1333;50.958;6.770;2024-03-08T13:05:59;10.60;;;8.00;;
2646;SDS011;1333;50.958;6.770;2024-03-08T13:08:25;9.33;;;8.33;;
2646;SDS011;1333;50.958;6.770;2024-03-08T13:10:52;9.60;;;7.93;;
2646;SDS011;1333;50.958;6.770;2024-03-08T13:13:18;8.47;;;7.60;;
2646;SDS011;1333;50.958;6.770;2024-03-08T13:15:44;8.73;;;7.70;;
2646;SDS011;1333;50.958;6.770;2024-03-08T13:18:10;10.90;;;8.27;;
2646;SDS011;1333;50.958;6.770;2024-03-08T13:20:36;9.70;;;7.50;;
2646;SDS011;1333;50.958;6.770;2024-03-08T13:23:03;9.23;;;8.00;;
2646;SDS011;1333;50.958;6.770;2024-03-08T13:25:30;10.53;;;9.00;;
2646;SDS011;1333;50.958;6.770;2024-03-08T13:27:56;9.60;;;7.67;;
2646;SDS011;1333;50.958;6.770;2024-03-08T13:30:24;9.03;;;7.40;;
2646;SDS011;1333;50.958;6.770;2024-03-08T13:32:51;10.80;;;8.27;;
2646;SDS011;1333;50.958;6.770;2024-03-08T13:35:18;11.23;;;7.90;;
2646;SDS011;1333;50.958;6.770;2024-03-08T13:37:49;13.33;;;7.30;;
2646;SDS011;1333;50.958;6.770;2024-03-08T13:40:16;9.30;;;8.40;;
2646;SDS011;1333;50.958;6.770;2024-03-08T13:42:45;9.50;;;7.20;;
2646;SDS011;1333;50.958;6.770;2024-03-08T13:45:11;11.53;;;7.40;;
2646;SDS011;1333;50.958;6.770;2024-03-08T13:47:40;9.20;;;8.30;;
2646;SDS011;1333;50.958;6.770;2024-03-08T13:50:06;11.03;;;8.03;;
2646;SDS011;1333;50.958;6.770;2024-03-08T13:52:36;9.13;;;7.63;;
2646;SDS011;1333;50.958;6.770;2024-03-08T13:55:03;8.43;;;7.63;;
2646;SDS011;1333;50.958;6.770;2024-03-08T13:57:30;11.20;;;7.60;;
2646;SDS011;1333;50.958;6.770;2024-03-08T13:59:56;7.63;;;6.93;;
2646;SDS011;1333;50.958;6.770;2024-03-08T14:02:22;8.10;;;7.30;;
2646;SDS011;1333;50.958;6.770;2024-03-08T14:04:52;10.30;;;8.03;;
2646;SDS011;1333;50.958;6.770;2024-03-08T14:07:21;9.00;;;7.10;;
2646;SDS011;1333;50.958;6.770;2024-03-08T14:09:48;8.50;;;7.30;;
2646;SDS011;1333;50.958;6.770;2024-03-08T14:12:14;7.33;;;6.63;;
2646;SDS011;1333;50.958;6.770;2024-03-08T14:14:40;6.80;;;6.10;;
2646;SDS011;1333;50.958;6.770;2024-03-08T14:17:07;12.60;;;7.60;;
2646;SDS011;1333;50.958;6.770;2024-03-08T14:19:35;7.13;;;6.40;;
2646;SDS011;1333;50.958;6.770;2024-03-08T14:22:01;7.60;;;6.80;;
2646;SDS011;1333;50.958;6.770;2024-03-08T14:24:29;11.47;;;7.43;;
2646;SDS011;1333;50.958;6.770;2024-03-08T14:27:00;8.30;;;6.93;;
2646;SDS011;1333;50.958;6.770;2024-03-08T14:29:28;6.60;;;6.00;;
2646;SDS011;1333;50.958;6.770;2024-03-08T14:31:57;7.63;;;6.40;;
2646;SDS011;1333;50.958;6.770;2024-03-08T14:34:24;9.20;;;6.80;;
2646;SDS011;1333;50.958;6.770;2024-03-08T14:36:52;9.93;;;7.70;;
2646;SDS011;1333;50.958;6.770;2024-03-08T14:39:18;8.47;;;7.07;;
2646;SDS011;1333;50.958;6.770;2024-03-08T14:41:47;8.80;;;6.20;;
2646;SDS011;1333;50.958;6.770;2024-03-08T14:44:13;12.73;;;7.10;;
2646;SDS011;1333;50.958;6.770;2024-03-08T14:46:39;9.00;;;6.80;;
2646;SDS011;1333;50.958;6.770;2024-03-08T14:49:05;8.60;;;6.70;;
2646;SDS011;1333;50.958;6.770;2024-03-08T14:51:31;11.10;;;7.70;;
2646;SDS011;1333;50.958;6.770;2024-03-08T14:53:58;9.20;;;7.10;;
2646;SDS011;1333;50.958;6.770;2024-03-08T14:56:23;9.80;;;6.47;;
2646;SDS011;1333;50.958;6.770;2024-03-08T14:58:52;8.73;;;7.43;;
2646;SDS011;1333;50.958;6.770;2024-03-08T15:01:17;8.17;;;7.10;;
2646;SDS011;1333;50.958;6.770;2024-03-08T15:03:49;7.07;;;6.33;;
2646;SDS011;1333;50.958;6.770;2024-03-08T15:06:15;6.93;;;6.03;;
2646;SDS011;1333;50.958;6.770;2024-03-08T15:08:44;8.43;;;6.20;;